PWSweather.com
Personal Weather Stations
Station Observations
IBOURGOG6
IsSurTilleFR

IsSurTilleFR

Lat: 47.521958, Lon: 5.112544000000071

Elevation: 902

Station Type: WMR200

http://meteotille.tbdt.fr

High Low Average
Temperature 70.9°F21.6°C 55.0°F12.8°C 63.5°F17.5°C
Dew Point 52.8°F11.6°C 45.6°F7.6°C 48.6°F9.2°C
Winds Calm Calm Calm Calm Calm Calm
Wind Gusts -- -- --
Humidity 81% 43% 60%
Pressure 29.18 in988.1 mb 29.09 in985.1 mb -
Precipitation 0.00 in0.0 mm - -
Hour Temp Dew Point Humidity Winds Wind Gusts Pressure Precip Precip Rate Daily Precip Total
12:00 AM 59.7°F15.4°C 48.3°F9.1°C 66% Calm Calm -- 29.12 in986.1 mb 0.00 in0.0 mm 0.00 in0.0 mm 0.00 in0.0 mm
12:10 AM 59.5°F15.3°C 48.6°F9.2°C 67% Calm Calm -- 29.12 in986.1 mb 0.00 in0.0 mm 0.00 in0.0 mm 0.00 in0.0 mm
12:20 AM 59.5°F15.3°C 48.6°F9.2°C 67% Calm Calm -- 29.12 in986.1 mb 0.00 in0.0 mm 0.00 in0.0 mm 0.00 in0.0 mm
12:30 AM 59.5°F15.3°C 49.0°F9.4°C 68% Calm Calm -- 29.12 in986.1 mb 0.00 in0.0 mm 0.00 in0.0 mm 0.00 in0.0 mm
12:40 AM 59.5°F15.3°C 49.0°F9.4°C 68% Calm Calm -- 29.12 in986.1 mb 0.00 in0.0 mm 0.00 in0.0 mm 0.00 in0.0 mm
12:50 AM 59.7°F15.4°C 49.5°F9.7°C 69% Calm Calm -- 29.12 in986.1 mb 0.00 in0.0 mm 0.00 in0.0 mm 0.00 in0.0 mm
01:00 AM 59.7°F15.4°C 49.5°F9.7°C 69% Calm Calm -- 29.12 in986.1 mb 0.00 in0.0 mm 0.00 in0.0 mm 0.00 in0.0 mm
01:10 AM 59.5°F15.3°C 49.4°F9.7°C 69% Calm Calm -- 29.12 in986.1 mb 0.00 in0.0 mm 0.00 in0.0 mm 0.00 in0.0 mm
01:20 AM 59.7°F15.4°C 49.5°F9.7°C 69% Calm Calm -- 29.12 in986.1 mb 0.00 in0.0 mm 0.00 in0.0 mm 0.00 in0.0 mm
01:30 AM 59.5°F15.3°C 49.4°F9.7°C 69% Calm Calm -- 29.12 in986.1 mb 0.00 in0.0 mm 0.00 in0.0 mm 0.00 in0.0 mm
01:40 AM 59.2°F15.1°C 49.0°F9.4°C 69% Calm Calm -- 29.12 in986.1 mb 0.00 in0.0 mm 0.00 in0.0 mm 0.00 in0.0 mm
01:50 AM 58.8°F14.9°C 49.4°F9.7°C 71% Calm Calm -- 29.12 in986.1 mb 0.00 in0.0 mm 0.00 in0.0 mm 0.00 in0.0 mm
02:00 AM 58.6°F14.8°C 49.3°F9.6°C 71% Calm Calm -- 29.12 in986.1 mb 0.00 in0.0 mm 0.00 in0.0 mm 0.00 in0.0 mm
02:10 AM 58.3°F14.6°C 48.9°F9.4°C 71% Calm Calm -- 29.12 in986.1 mb 0.00 in0.0 mm 0.00 in0.0 mm 0.00 in0.0 mm
02:20 AM 57.9°F14.4°C 48.9°F9.4°C 72% Calm Calm -- 29.12 in986.1 mb 0.00 in0.0 mm 0.00 in0.0 mm 0.00 in0.0 mm
02:30 AM 57.7°F14.3°C 49.1°F9.5°C 73% Calm Calm -- 29.12 in986.1 mb 0.00 in0.0 mm 0.00 in0.0 mm 0.00 in0.0 mm
02:40 AM 57.7°F14.3°C 49.1°F9.5°C 73% Calm Calm -- 29.12 in986.1 mb 0.00 in0.0 mm 0.00 in0.0 mm 0.00 in0.0 mm
02:50 AM 57.4°F14.1°C 48.8°F9.3°C 73% Calm Calm -- 29.12 in986.1 mb 0.00 in0.0 mm 0.00 in0.0 mm 0.00 in0.0 mm
03:00 AM 57.4°F14.1°C 48.8°F9.3°C 73% Calm Calm -- 29.12 in986.1 mb 0.00 in0.0 mm 0.00 in0.0 mm 0.00 in0.0 mm
03:10 AM 56.8°F13.8°C 48.6°F9.2°C 74% Calm Calm -- 29.12 in986.1 mb 0.00 in0.0 mm 0.00 in0.0 mm 0.00 in0.0 mm
03:20 AM 56.7°F13.7°C 48.5°F9.2°C 74% Calm Calm -- 29.12 in986.1 mb 0.00 in0.0 mm 0.00 in0.0 mm 0.00 in0.0 mm
03:30 AM 56.7°F13.7°C 48.8°F9.3°C 75% Calm Calm -- 29.12 in986.1 mb 0.00 in0.0 mm 0.00 in0.0 mm 0.00 in0.0 mm
03:40 AM 56.7°F13.7°C 48.8°F9.3°C 75% Calm Calm -- 29.12 in986.1 mb 0.00 in0.0 mm 0.00 in0.0 mm 0.00 in0.0 mm
03:50 AM 56.3°F13.5°C 48.8°F9.3°C 76% Calm Calm -- 29.12 in986.1 mb 0.00 in0.0 mm 0.00 in0.0 mm 0.00 in0.0 mm
04:00 AM 56.5°F13.6°C 49.0°F9.4°C 76% Calm Calm -- 29.12 in986.1 mb 0.00 in0.0 mm 0.00 in0.0 mm 0.00 in0.0 mm
04:10 AM 56.3°F13.5°C 48.8°F9.3°C 76% Calm Calm -- 29.12 in986.1 mb 0.00 in0.0 mm 0.00 in0.0 mm 0.00 in0.0 mm
04:20 AM 55.9°F13.3°C 48.8°F9.3°C 77% Calm Calm -- 29.09 in985.1 mb 0.00 in0.0 mm 0.00 in0.0 mm 0.00 in0.0 mm
04:30 AM 55.9°F13.3°C 48.8°F9.3°C 77% Calm Calm -- 29.09 in985.1 mb 0.00 in0.0 mm 0.00 in0.0 mm 0.00 in0.0 mm
04:40 AM 55.8°F13.2°C 48.7°F9.3°C 77% Calm Calm -- 29.09 in985.1 mb 0.00 in0.0 mm 0.00 in0.0 mm 0.00 in0.0 mm
04:50 AM 55.4°F13.0°C 48.7°F9.3°C 78% Calm Calm -- 29.09 in985.1 mb 0.00 in0.0 mm 0.00 in0.0 mm 0.00 in0.0 mm
05:00 AM 55.6°F13.1°C 49.2°F9.6°C 79% Calm Calm -- 29.09 in985.1 mb 0.00 in0.0 mm 0.00 in0.0 mm 0.00 in0.0 mm
05:10 AM 55.6°F13.1°C 49.2°F9.6°C 79% Calm Calm -- 29.09 in985.1 mb 0.00 in0.0 mm 0.00 in0.0 mm 0.00 in0.0 mm
05:20 AM 55.6°F13.1°C 49.2°F9.6°C 79% Calm Calm -- 29.09 in985.1 mb 0.00 in0.0 mm 0.00 in0.0 mm 0.00 in0.0 mm
05:30 AM 55.4°F13.0°C 49.0°F9.4°C 79% Calm Calm -- 29.09 in985.1 mb 0.00 in0.0 mm 0.00 in0.0 mm 0.00 in0.0 mm
05:40 AM 55.0°F12.8°C 49.0°F9.4°C 80% Calm Calm -- 29.09 in985.1 mb 0.00 in0.0 mm 0.00 in0.0 mm 0.00 in0.0 mm
05:50 AM 55.4°F13.0°C 49.3°F9.6°C 80% Calm Calm -- 29.09 in985.1 mb 0.00 in0.0 mm 0.00 in0.0 mm 0.00 in0.0 mm
06:00 AM 55.4°F13.0°C 49.3°F9.6°C 80% Calm Calm -- 29.09 in985.1 mb 0.00 in0.0 mm 0.00 in0.0 mm 0.00 in0.0 mm
06:10 AM 55.6°F13.1°C 49.8°F9.9°C 81% Calm Calm -- 29.09 in985.1 mb 0.00 in0.0 mm 0.00 in0.0 mm 0.00 in0.0 mm
06:20 AM 55.9°F13.3°C 50.2°F10.1°C 81% Calm Calm -- 29.12 in986.1 mb 0.00 in0.0 mm 0.00 in0.0 mm 0.00 in0.0 mm
06:30 AM 56.1°F13.4°C 50.4°F10.2°C 81% Calm Calm -- 29.12 in986.1 mb 0.00 in0.0 mm 0.00 in0.0 mm 0.00 in0.0 mm
06:40 AM 56.5°F13.6°C 50.4°F10.2°C 80% Calm Calm -- 29.12 in986.1 mb 0.00 in0.0 mm 0.00 in0.0 mm 0.00 in0.0 mm
06:50 AM 56.7°F13.7°C 50.6°F10.3°C 80% Calm Calm -- 29.12 in986.1 mb 0.00 in0.0 mm 0.00 in0.0 mm 0.00 in0.0 mm
07:00 AM 56.8°F13.8°C 50.4°F10.2°C 79% Calm Calm -- 29.12 in986.1 mb 0.00 in0.0 mm 0.00 in0.0 mm 0.00 in0.0 mm
07:10 AM 57.0°F13.9°C 50.6°F10.3°C 79% Calm Calm -- 29.12 in986.1 mb 0.00 in0.0 mm 0.00 in0.0 mm 0.00 in0.0 mm
07:20 AM 57.0°F13.9°C 50.6°F10.3°C 79% Calm Calm -- 29.12 in986.1 mb 0.00 in0.0 mm 0.00 in0.0 mm 0.00 in0.0 mm
07:30 AM 57.0°F13.9°C 50.9°F10.5°C 80% Calm Calm -- 29.12 in986.1 mb 0.00 in0.0 mm 0.00 in0.0 mm 0.00 in0.0 mm
07:40 AM 57.6°F14.2°C 51.4°F10.8°C 80% Calm Calm -- 29.12 in986.1 mb 0.00 in0.0 mm 0.00 in0.0 mm 0.00 in0.0 mm
07:50 AM 57.9°F14.4°C 51.8°F11.0°C 80% Calm Calm -- 29.12 in986.1 mb 0.00 in0.0 mm 0.00 in0.0 mm 0.00 in0.0 mm
08:00 AM 58.5°F14.7°C 52.0°F11.1°C 79% Calm Calm -- 29.15 in987.1 mb 0.00 in0.0 mm 0.00 in0.0 mm 0.00 in0.0 mm
08:10 AM 59.5°F15.3°C 52.7°F11.5°C 78% Calm Calm -- 29.15 in987.1 mb 0.00 in0.0 mm 0.00 in0.0 mm 0.00 in0.0 mm
08:20 AM 60.4°F15.8°C 52.8°F11.6°C 76% Calm Calm -- 29.15 in987.1 mb 0.00 in0.0 mm 0.00 in0.0 mm 0.00 in0.0 mm
08:30 AM 61.0°F16.1°C 52.3°F11.3°C 73% Calm Calm -- 29.12 in986.1 mb 0.00 in0.0 mm 0.00 in0.0 mm 0.00 in0.0 mm
08:40 AM 61.7°F16.5°C 52.2°F11.2°C 71% Calm Calm -- 29.12 in986.1 mb 0.00 in0.0 mm 0.00 in0.0 mm 0.00 in0.0 mm
08:50 AM 62.2°F16.8°C 52.3°F11.3°C 70% Calm Calm -- 29.15 in987.1 mb 0.00 in0.0 mm 0.00 in0.0 mm 0.00 in0.0 mm
09:00 AM 63.0°F17.2°C 51.8°F11.0°C 67% Calm Calm -- 29.15 in987.1 mb 0.00 in0.0 mm 0.00 in0.0 mm 0.00 in0.0 mm
09:10 AM 63.5°F17.5°C 50.2°F10.1°C 62% Calm Calm -- 29.15 in987.1 mb 0.00 in0.0 mm 0.00 in0.0 mm 0.00 in0.0 mm
09:20 AM 63.7°F17.6°C 48.6°F9.2°C 58% Calm Calm -- 29.15 in987.1 mb 0.00 in0.0 mm 0.00 in0.0 mm 0.00 in0.0 mm
09:30 AM 64.2°F17.9°C 49.1°F9.5°C 58% Calm Calm -- 29.15 in987.1 mb 0.00 in0.0 mm 0.00 in0.0 mm 0.00 in0.0 mm
09:40 AM 64.6°F18.1°C 47.6°F8.7°C 54% Calm Calm -- 29.15 in987.1 mb 0.00 in0.0 mm 0.00 in0.0 mm 0.00 in0.0 mm
09:50 AM 65.1°F18.4°C 47.1°F8.4°C 52% Calm Calm -- 29.15 in987.1 mb 0.00 in0.0 mm 0.00 in0.0 mm 0.00 in0.0 mm
10:00 AM 65.5°F18.6°C 47.4°F8.6°C 52% Calm Calm -- 29.15 in987.1 mb 0.00 in0.0 mm 0.00 in0.0 mm 0.00 in0.0 mm
10:10 AM 64.9°F18.3°C 46.4°F8.0°C 51% Calm Calm -- 29.15 in987.1 mb 0.00 in0.0 mm 0.00 in0.0 mm 0.00 in0.0 mm
10:20 AM 64.8°F18.2°C 46.2°F7.9°C 51% Calm Calm -- 29.15 in987.1 mb 0.00 in0.0 mm 0.00 in0.0 mm 0.00 in0.0 mm
10:30 AM 64.8°F18.2°C 46.2°F7.9°C 51% Calm Calm -- 29.15 in987.1 mb 0.00 in0.0 mm 0.00 in0.0 mm 0.00 in0.0 mm
10:40 AM 64.8°F18.2°C 46.7°F8.2°C 52% Calm Calm -- 29.15 in987.1 mb 0.00 in0.0 mm 0.00 in0.0 mm 0.00 in0.0 mm
10:50 AM 64.8°F18.2°C 47.2°F8.4°C 53% Calm Calm -- 29.15 in987.1 mb 0.00 in0.0 mm 0.00 in0.0 mm 0.00 in0.0 mm
11:00 AM 64.8°F18.2°C 46.7°F8.2°C 52% Calm Calm -- 29.15 in987.1 mb 0.00 in0.0 mm 0.00 in0.0 mm 0.00 in0.0 mm
11:10 AM 64.8°F18.2°C 46.7°F8.2°C 52% Calm Calm -- 29.15 in987.1 mb 0.00 in0.0 mm 0.00 in0.0 mm 0.00 in0.0 mm
11:20 AM 64.4°F18.0°C 46.9°F8.3°C 53% Calm Calm -- 29.18 in988.1 mb 0.00 in0.0 mm 0.00 in0.0 mm 0.00 in0.0 mm
11:30 AM 64.4°F18.0°C 46.9°F8.3°C 53% Calm Calm -- 29.15 in987.1 mb 0.00 in0.0 mm 0.00 in0.0 mm 0.00 in0.0 mm
11:40 AM 64.8°F18.2°C 47.2°F8.4°C 53% Calm Calm -- 29.15 in987.1 mb 0.00 in0.0 mm 0.00 in0.0 mm 0.00 in0.0 mm
11:50 AM 64.8°F18.2°C 47.2°F8.4°C 53% Calm Calm -- 29.12 in986.1 mb 0.00 in0.0 mm 0.00 in0.0 mm 0.00 in0.0 mm
12:00 PM 65.5°F18.6°C 48.4°F9.1°C 54% Calm Calm -- 29.15 in987.1 mb 0.00 in0.0 mm 0.00 in0.0 mm 0.00 in0.0 mm
12:10 PM 65.7°F18.7°C 48.1°F8.9°C 53% Calm Calm -- 29.15 in987.1 mb 0.00 in0.0 mm 0.00 in0.0 mm 0.00 in0.0 mm
12:20 PM 65.7°F18.7°C 47.5°F8.6°C 52% Calm Calm -- 29.15 in987.1 mb 0.00 in0.0 mm 0.00 in0.0 mm 0.00 in0.0 mm
12:30 PM 65.8°F18.8°C 47.7°F8.7°C 52% Calm Calm -- 29.12 in986.1 mb 0.00 in0.0 mm 0.00 in0.0 mm 0.00 in0.0 mm
12:40 PM 66.2°F19.0°C 47.5°F8.6°C 51% Calm Calm -- 29.12 in986.1 mb 0.00 in0.0 mm 0.00 in0.0 mm 0.00 in0.0 mm
12:50 PM 66.4°F19.1°C 47.2°F8.4°C 50% Calm Calm -- 29.15 in987.1 mb 0.00 in0.0 mm 0.00 in0.0 mm 0.00 in0.0 mm
01:00 PM 66.4°F19.1°C 47.2°F8.4°C 50% Calm Calm -- 29.15 in987.1 mb 0.00 in0.0 mm 0.00 in0.0 mm 0.00 in0.0 mm
01:10 PM 66.7°F19.3°C 47.0°F8.3°C 49% Calm Calm -- 29.15 in987.1 mb 0.00 in0.0 mm 0.00 in0.0 mm 0.00 in0.0 mm
01:20 PM 66.9°F19.4°C 46.6°F8.1°C 48% Calm Calm -- 29.15 in987.1 mb 0.00 in0.0 mm 0.00 in0.0 mm 0.00 in0.0 mm
01:30 PM 67.3°F19.6°C 47.5°F8.6°C 49% Calm Calm -- 29.15 in987.1 mb 0.00 in0.0 mm 0.00 in0.0 mm 0.00 in0.0 mm
01:40 PM 67.5°F19.7°C 47.1°F8.4°C 48% Calm Calm -- 29.15 in987.1 mb 0.00 in0.0 mm 0.00 in0.0 mm 0.00 in0.0 mm
01:50 PM 67.6°F19.8°C 47.2°F8.4°C 48% Calm Calm -- 29.15 in987.1 mb 0.00 in0.0 mm 0.00 in0.0 mm 0.00 in0.0 mm
02:00 PM 67.8°F19.9°C 46.8°F8.2°C 47% Calm Calm -- 29.15 in987.1 mb 0.00 in0.0 mm 0.00 in0.0 mm 0.00 in0.0 mm
02:10 PM 68.2°F20.1°C 46.6°F8.1°C 46% Calm Calm -- 29.15 in987.1 mb 0.00 in0.0 mm 0.00 in0.0 mm 0.00 in0.0 mm
02:20 PM 68.7°F20.4°C 47.1°F8.4°C 46% Calm Calm -- 29.15 in987.1 mb 0.00 in0.0 mm 0.00 in0.0 mm 0.00 in0.0 mm
02:30 PM 68.5°F20.3°C 46.3°F7.9°C 45% Calm Calm -- 29.15 in987.1 mb 0.00 in0.0 mm 0.00 in0.0 mm 0.00 in0.0 mm
02:40 PM 68.7°F20.4°C 46.5°F8.1°C 45% Calm Calm -- 29.15 in987.1 mb 0.00 in0.0 mm 0.00 in0.0 mm 0.00 in0.0 mm
02:50 PM 68.9°F20.5°C 46.1°F7.8°C 44% Calm Calm -- 29.15 in987.1 mb 0.00 in0.0 mm 0.00 in0.0 mm 0.00 in0.0 mm
03:00 PM 69.3°F20.7°C 46.4°F8.0°C 44% Calm Calm -- 29.15 in987.1 mb 0.00 in0.0 mm 0.00 in0.0 mm 0.00 in0.0 mm
03:10 PM 69.8°F21.0°C 46.3°F7.9°C 43% Calm Calm -- 29.15 in987.1 mb 0.00 in0.0 mm 0.00 in0.0 mm 0.00 in0.0 mm
03:20 PM 70.2°F21.2°C 46.6°F8.1°C 43% Calm Calm -- 29.12 in986.1 mb 0.00 in0.0 mm 0.00 in0.0 mm 0.00 in0.0 mm
03:30 PM 70.2°F21.2°C 46.6°F8.1°C 43% Calm Calm -- 29.12 in986.1 mb 0.00 in0.0 mm 0.00 in0.0 mm 0.00 in0.0 mm
03:40 PM 70.7°F21.5°C 47.1°F8.4°C 43% Calm Calm -- 29.12 in986.1 mb 0.00 in0.0 mm 0.00 in0.0 mm 0.00 in0.0 mm
03:50 PM 70.9°F21.6°C 47.9°F8.8°C 44% Calm Calm -- 29.12 in986.1 mb 0.00 in0.0 mm 0.00 in0.0 mm 0.00 in0.0 mm
04:00 PM 70.5°F21.4°C 47.5°F8.6°C 44% Calm Calm -- 29.12 in986.1 mb 0.00 in0.0 mm 0.00 in0.0 mm 0.00 in0.0 mm
04:10 PM 70.2°F21.2°C 46.6°F8.1°C 43% Calm Calm -- 29.12 in986.1 mb 0.00 in0.0 mm 0.00 in0.0 mm 0.00 in0.0 mm
04:20 PM 69.6°F20.9°C 46.1°F7.8°C 43% Calm Calm -- 29.12 in986.1 mb 0.00 in0.0 mm 0.00 in0.0 mm 0.00 in0.0 mm
04:30 PM 69.4°F20.8°C 46.0°F7.8°C 43% Calm Calm -- 29.12 in986.1 mb 0.00 in0.0 mm 0.00 in0.0 mm 0.00 in0.0 mm
04:40 PM 69.1°F20.6°C 45.6°F7.6°C 43% Calm Calm -- 29.12 in986.1 mb 0.00 in0.0 mm 0.00 in0.0 mm 0.00 in0.0 mm
04:50 PM 68.9°F20.5°C 46.1°F7.8°C 44% Calm Calm -- 29.12 in986.1 mb 0.00 in0.0 mm 0.00 in0.0 mm 0.00 in0.0 mm
05:00 PM 68.7°F20.4°C 45.9°F7.7°C 44% Calm Calm -- 29.15 in987.1 mb 0.00 in0.0 mm 0.00 in0.0 mm 0.00 in0.0 mm
05:10 PM 68.5°F20.3°C 45.8°F7.7°C 44% Calm Calm -- 29.15 in987.1 mb 0.00 in0.0 mm 0.00 in0.0 mm 0.00 in0.0 mm
05:20 PM 68.4°F20.2°C 46.8°F8.2°C 46% Calm Calm -- 29.12 in986.1 mb 0.00 in0.0 mm 0.00 in0.0 mm 0.00 in0.0 mm
05:30 PM 68.0°F20.0°C 46.4°F8.0°C 46% Calm Calm -- 29.12 in986.1 mb 0.00 in0.0 mm 0.00 in0.0 mm 0.00 in0.0 mm
05:40 PM 68.0°F20.0°C 47.6°F8.7°C 48% Calm Calm -- 29.12 in986.1 mb 0.00 in0.0 mm 0.00 in0.0 mm 0.00 in0.0 mm
05:50 PM 68.2°F20.1°C 47.7°F8.7°C 48% Calm Calm -- 29.12 in986.1 mb 0.00 in0.0 mm 0.00 in0.0 mm 0.00 in0.0 mm
06:00 PM 68.2°F20.1°C 47.7°F8.7°C 48% Calm Calm -- 29.12 in986.1 mb 0.00 in0.0 mm 0.00 in0.0 mm 0.00 in0.0 mm
06:10 PM 68.2°F20.1°C 47.7°F8.7°C 48% Calm Calm -- 29.12 in986.1 mb 0.00 in0.0 mm 0.00 in0.0 mm 0.00 in0.0 mm
06:20 PM 68.2°F20.1°C 47.7°F8.7°C 48% Calm Calm -- 29.12 in986.1 mb 0.00 in0.0 mm 0.00 in0.0 mm 0.00 in0.0 mm
06:30 PM 68.4°F20.2°C 47.9°F8.8°C 48% Calm Calm -- 29.12 in986.1 mb 0.00 in0.0 mm 0.00 in0.0 mm 0.00 in0.0 mm
06:40 PM 68.4°F20.2°C 47.9°F8.8°C 48% Calm Calm -- 29.12 in986.1 mb 0.00 in0.0 mm 0.00 in0.0 mm 0.00 in0.0 mm
06:50 PM 68.4°F20.2°C 47.9°F8.8°C 48% Calm Calm -- 29.12 in986.1 mb 0.00 in0.0 mm 0.00 in0.0 mm 0.00 in0.0 mm
07:00 PM 68.4°F20.2°C 47.9°F8.8°C 48% Calm Calm -- 29.12 in986.1 mb 0.00 in0.0 mm 0.00 in0.0 mm 0.00 in0.0 mm
07:10 PM 68.4°F20.2°C 47.9°F8.8°C 48% Calm Calm -- 29.12 in986.1 mb 0.00 in0.0 mm 0.00 in0.0 mm 0.00 in0.0 mm
07:20 PM 68.2°F20.1°C 48.3°F9.1°C 49% Calm Calm -- 29.12 in986.1 mb 0.00 in0.0 mm 0.00 in0.0 mm 0.00 in0.0 mm
07:30 PM 68.2°F20.1°C 48.3°F9.1°C 49% Calm Calm -- 29.12 in986.1 mb 0.00 in0.0 mm 0.00 in0.0 mm 0.00 in0.0 mm
07:40 PM 68.0°F20.0°C 48.1°F8.9°C 49% Calm Calm -- 29.12 in986.1 mb 0.00 in0.0 mm 0.00 in0.0 mm 0.00 in0.0 mm
07:50 PM 67.8°F19.9°C 48.5°F9.2°C 50% Calm Calm -- 29.12 in986.1 mb 0.00 in0.0 mm 0.00 in0.0 mm 0.00 in0.0 mm
08:00 PM 67.6°F19.8°C 48.9°F9.4°C 51% Calm Calm -- 29.12 in986.1 mb 0.00 in0.0 mm 0.00 in0.0 mm 0.00 in0.0 mm
08:10 PM 67.5°F19.7°C 48.7°F9.3°C 51% Calm Calm -- 29.12 in986.1 mb 0.00 in0.0 mm 0.00 in0.0 mm 0.00 in0.0 mm
08:20 PM 67.3°F19.6°C 49.0°F9.4°C 52% Calm Calm -- 29.12 in986.1 mb 0.00 in0.0 mm 0.00 in0.0 mm 0.00 in0.0 mm
08:30 PM 67.1°F19.5°C 49.4°F9.7°C 53% Calm Calm -- 29.15 in987.1 mb 0.00 in0.0 mm 0.00 in0.0 mm 0.00 in0.0 mm
08:40 PM 66.9°F19.4°C 49.2°F9.6°C 53% Calm Calm -- 29.15 in987.1 mb 0.00 in0.0 mm 0.00 in0.0 mm 0.00 in0.0 mm
08:50 PM 66.7°F19.3°C 49.1°F9.5°C 53% Calm Calm -- 29.15 in987.1 mb 0.00 in0.0 mm 0.00 in0.0 mm 0.00 in0.0 mm
09:00 PM 66.7°F19.3°C 49.1°F9.5°C 53% Calm Calm -- 29.15 in987.1 mb 0.00 in0.0 mm 0.00 in0.0 mm 0.00 in0.0 mm
09:10 PM 66.6°F19.2°C 48.9°F9.4°C 53% Calm Calm -- 29.15 in987.1 mb 0.00 in0.0 mm 0.00 in0.0 mm 0.00 in0.0 mm
09:20 PM 66.6°F19.2°C 49.4°F9.7°C 54% Calm Calm -- 29.15 in987.1 mb 0.00 in0.0 mm 0.00 in0.0 mm 0.00 in0.0 mm
09:30 PM 66.4°F19.1°C 49.7°F9.8°C 55% Calm Calm -- 29.15 in987.1 mb 0.00 in0.0 mm 0.00 in0.0 mm 0.00 in0.0 mm
09:40 PM 66.4°F19.1°C 49.7°F9.8°C 55% Calm Calm -- 29.15 in987.1 mb 0.00 in0.0 mm 0.00 in0.0 mm 0.00 in0.0 mm
09:50 PM 66.4°F19.1°C 49.7°F9.8°C 55% Calm Calm -- 29.15 in987.1 mb 0.00 in0.0 mm 0.00 in0.0 mm 0.00 in0.0 mm
10:00 PM 66.2°F19.0°C 49.6°F9.8°C 55% Calm Calm -- 29.15 in987.1 mb 0.00 in0.0 mm 0.00 in0.0 mm 0.00 in0.0 mm
10:10 PM 66.2°F19.0°C 49.6°F9.8°C 55% Calm Calm -- 29.15 in987.1 mb 0.00 in0.0 mm 0.00 in0.0 mm 0.00 in0.0 mm
10:20 PM 66.2°F19.0°C 50.0°F10.0°C 56% Calm Calm -- 29.15 in987.1 mb 0.00 in0.0 mm 0.00 in0.0 mm 0.00 in0.0 mm
10:30 PM 66.0°F18.9°C 50.3°F10.2°C 57% Calm Calm -- 29.15 in987.1 mb 0.00 in0.0 mm 0.00 in0.0 mm 0.00 in0.0 mm
10:40 PM 65.8°F18.8°C 50.6°F10.3°C 58% Calm Calm -- 29.15 in987.1 mb 0.00 in0.0 mm 0.00 in0.0 mm 0.00 in0.0 mm
10:50 PM 65.7°F18.7°C 50.9°F10.5°C 59% Calm Calm -- 29.15 in987.1 mb 0.00 in0.0 mm 0.00 in0.0 mm 0.00 in0.0 mm
11:00 PM 65.3°F18.5°C 51.1°F10.6°C 60% Calm Calm -- 29.15 in987.1 mb 0.00 in0.0 mm 0.00 in0.0 mm 0.00 in0.0 mm
11:10 PM 65.1°F18.4°C 50.9°F10.5°C 60% Calm Calm -- 29.15 in987.1 mb 0.00 in0.0 mm 0.00 in0.0 mm 0.00 in0.0 mm
11:20 PM 64.9°F18.3°C 51.2°F10.7°C 61% Calm Calm -- 29.15 in987.1 mb 0.00 in0.0 mm 0.00 in0.0 mm 0.00 in0.0 mm
11:30 PM 64.9°F18.3°C 51.6°F10.9°C 62% Calm Calm -- 29.15 in987.1 mb 0.00 in0.0 mm 0.00 in0.0 mm 0.00 in0.0 mm
11:40 PM 64.8°F18.2°C 51.9°F11.1°C 63% Calm Calm -- 29.15 in987.1 mb 0.00 in0.0 mm 0.00 in0.0 mm 0.00 in0.0 mm
11:50 PM 64.6°F18.1°C 51.7°F10.9°C 63% Calm Calm -- 29.15 in987.1 mb 0.00 in0.0 mm 0.00 in0.0 mm 0.00 in0.0 mm